Time;durP1;ratioP1;P1;durP2;ratioP2;P2;SDS_P1;SDS_P2;PMS_P1;PMS_P2;Temp;Humidity;BMP_temperature;BMP_pressure;BME280_temperature;BME280_humidity;BME280_pressure;Samples;Min_cycle;Max_cycle;Signal;HPM_P1;HPM_P2
2023/12/08 00:01:19;;;;;;;14.50;8.55;;;22.80;48.50;;;;;;5050857;28;20032;-69
2023/12/08 00:03:45;;;;;;;15.25;9.00;;;22.80;48.40;;;;;;5050989;28;20121;-71
2023/12/08 00:06:12;;;;;;;14.85;8.93;;;22.70;48.30;;;;;;5050838;28;20591;-71
2023/12/08 00:08:38;;;;;;;14.13;8.52;;;22.60;48.10;;;;;;5015217;28;20088;-71
2023/12/08 00:11:05;;;;;;;15.63;9.52;;;22.80;48.20;;;;;;5050985;28;20029;-72
2023/12/08 00:13:31;;;;;;;15.35;9.65;;;22.80;48.10;;;;;;5050723;28;20060;-71
2023/12/08 00:15:57;;;;;;;17.02;8.98;;;22.70;48.00;;;;;;5035380;28;20080;-71
2023/12/08 00:18:23;;;;;;;14.00;8.32;;;22.70;48.00;;;;;;5074784;28;20064;-71
2023/12/08 00:20:49;;;;;;;12.55;8.88;;;22.60;47.90;;;;;;5074865;28;20029;-69
2023/12/08 00:23:15;;;;;;;18.75;8.90;;;22.60;47.90;;;;;;5074593;28;20081;-71
2023/12/08 00:25:41;;;;;;;14.40;8.43;;;22.50;47.80;;;;;;5074792;28;20032;-71
2023/12/08 00:28:08;;;;;;;12.13;9.50;;;22.50;47.80;;;;;;5072154;28;20045;-72
2023/12/08 00:30:35;;;;;;;12.88;8.38;;;22.50;47.80;;;;;;5074710;28;20033;-72
2023/12/08 00:33:02;;;;;;;12.35;8.70;;;22.50;47.80;;;;;;5074435;28;20035;-71
2023/12/08 00:35:29;;;;;;;14.88;8.35;;;22.50;47.90;;;;;;5074430;28;20142;-72
2023/12/08 00:37:55;;;;;;;14.02;8.50;;;22.50;47.90;;;;;;5074534;28;20035;-71
2023/12/08 00:40:21;;;;;;;13.77;8.20;;;22.50;47.90;;;;;;5074300;28;20032;-72
2023/12/08 00:42:47;;;;;;;14.18;8.70;;;22.50;47.80;;;;;;5055621;28;20180;-71
2023/12/08 00:45:16;;;;;;;15.15;8.27;;;22.50;47.80;;;;;;5074430;28;20067;-71
2023/12/08 00:47:42;;;;;;;15.80;8.88;;;22.50;47.70;;;;;;5074375;28;20060;-71
2023/12/08 00:50:08;;;;;;;13.13;8.85;;;22.50;47.60;;;;;;5074148;28;20454;-72
2023/12/08 00:52:35;;;;;;;14.32;9.75;;;22.50;47.50;;;;;;5080776;28;20313;-71
2023/12/08 00:55:01;;;;;;;13.45;9.25;;;22.50;47.40;;;;;;5094859;28;20040;-71
2023/12/08 00:57:27;;;;;;;13.75;9.10;;;22.60;47.40;;;;;;5094365;28;20453;-72
2023/12/08 00:59:53;;;;;;;16.42;9.10;;;22.70;47.40;;;;;;5094495;28;20219;-72
2023/12/08 01:02:19;;;;;;;14.68;8.75;;;22.50;47.30;;;;;;5094321;28;20032;-70
2023/12/08 01:04:45;;;;;;;14.50;9.20;;;22.60;47.10;;;;;;5094286;28;20082;-71
2023/12/08 01:07:11;;;;;;;14.02;8.57;;;22.50;47.00;;;;;;5094210;28;20028;-72
2023/12/08 01:09:37;;;;;;;17.70;9.48;;;22.50;47.00;;;;;;5092796;28;20368;-72
2023/12/08 01:12:03;;;;;;;12.82;8.85;;;22.40;46.90;;;;;;5094011;28;20412;-71
2023/12/08 01:14:30;;;;;;;13.20;8.35;;;22.40;46.90;;;;;;5092860;28;20044;-72
2023/12/08 01:16:56;;;;;;;18.02;9.57;;;22.50;46.90;;;;;;5074178;28;20063;-72
2023/12/08 01:19:22;;;;;;;16.52;8.77;;;22.40;46.80;;;;;;5073561;28;20081;-71
2023/12/08 01:21:48;;;;;;;15.70;8.35;;;22.40;46.80;;;;;;5073699;28;20444;-71
2023/12/08 01:24:15;;;;;;;16.48;9.25;;;22.30;46.70;;;;;;5016706;28;20120;-71
2023/12/08 01:26:44;;;;;;;12.77;8.00;;;22.30;46.70;;;;;;5053568;28;20032;-71
2023/12/08 01:29:11;;;;;;;12.45;7.93;;;22.40;46.70;;;;;;5053101;28;20131;-71
2023/12/08 01:31:37;;;;;;;14.38;8.88;;;22.30;46.70;;;;;;5053562;28;20029;-72
2023/12/08 01:34:03;;;;;;;14.55;8.60;;;22.30;46.70;;;;;;5053332;28;20033;-72
2023/12/08 01:36:30;;;;;;;15.18;8.63;;;22.30;46.70;;;;;;5055910;28;20112;-72
2023/12/08 01:38:56;;;;;;;14.57;8.15;;;22.30;46.60;;;;;;5053632;28;20109;-71
2023/12/08 01:41:22;;;;;;;15.00;9.10;;;22.40;46.60;;;;;;5053540;28;20040;-71
2023/12/08 01:43:48;;;;;;;16.45;9.13;;;22.50;46.60;;;;;;5053406;28;20037;-72
2023/12/08 01:46:19;;;;;;;11.80;7.85;;;22.40;46.40;;;;;;5053041;28;20119;-71
2023/12/08 01:48:46;;;;;;;17.65;9.32;;;22.40;46.40;;;;;;5053039;28;20041;-72
2023/12/08 01:51:14;;;;;;;15.32;9.27;;;22.40;46.30;;;;;;5053140;28;20048;-72
2023/12/08 01:53:44;;;;;;;14.25;9.30;;;22.40;46.20;;;;;;5053106;28;20488;-72
2023/12/08 01:56:12;;;;;;;14.25;9.40;;;22.40;46.20;;;;;;5052969;28;20104;-72
2023/12/08 01:58:39;;;;;;;15.20;8.40;;;22.40;46.10;;;;;;5030419;28;20343;-72
2023/12/08 02:01:06;;;;;;;15.40;8.32;;;22.40;46.00;;;;;;5030560;28;20046;-71
2023/12/08 02:03:33;;;;;;;14.65;8.85;;;22.40;46.00;;;;;;5013954;28;20115;-71
2023/12/08 02:05:59;;;;;;;14.73;9.27;;;22.30;45.90;;;;;;5030418;28;20068;-71
2023/12/08 02:08:27;;;;;;;17.08;8.82;;;22.30;45.90;;;;;;5030235;28;20087;-71
2023/12/08 02:10:53;;;;;;;14.32;9.52;;;22.30;45.90;;;;;;5030339;28;20034;-72
2023/12/08 02:13:23;;;;;;;15.82;9.38;;;22.40;45.80;;;;;;5030306;28;20343;-72
2023/12/08 02:16:10;;;;;;;17.65;10.40;;;22.20;45.70;;;;;;5051131;28;20102;-72
2023/12/08 02:18:38;;;;;;;15.50;9.63;;;22.40;45.90;;;;;;5053130;28;20427;-70
2023/12/08 02:21:08;;;;;;;13.60;9.38;;;22.30;45.80;;;;;;5069973;28;20516;-71
2023/12/08 02:23:35;;;;;;;16.83;10.07;;;22.10;45.70;;;;;;5070078;28;20110;-71
2023/12/08 02:26:05;;;;;;;17.02;9.73;;;22.20;45.60;;;;;;5069874;28;20511;-70
2023/12/08 02:28:31;;;;;;;16.60;10.45;;;22.20;45.70;;;;;;5069848;28;20047;-72
2023/12/08 02:31:00;;;;;;;17.67;9.52;;;22.20;45.70;;;;;;5071107;28;20036;-70
2023/12/08 02:33:30;;;;;;;16.67;9.00;;;22.30;45.80;;;;;;5072305;28;20089;-71
2023/12/08 02:35:58;;;;;;;19.02;8.88;;;22.20;45.60;;;;;;5072192;28;20089;-71
2023/12/08 02:38:25;;;;;;;15.38;9.98;;;22.30;45.60;;;;;;5071957;28;20058;-70
2023/12/08 02:40:52;;;;;;;16.38;8.68;;;22.30;45.60;;;;;;5071531;28;20131;-71
2023/12/08 02:43:18;;;;;;;14.98;8.57;;;22.30;45.50;;;;;;5072052;28;20407;-72
2023/12/08 02:45:44;;;;;;;14.07;9.73;;;22.30;45.50;;;;;;5071892;28;20120;-71
2023/12/08 02:48:10;;;;;;;15.23;9.27;;;22.20;45.30;;;;;;5071948;28;20114;-71
2023/12/08 02:50:36;;;;;;;19.45;9.32;;;22.30;45.40;;;;;;5071982;28;20036;-71
2023/12/08 02:53:02;;;;;;;17.45;10.18;;;22.30;45.30;;;;;;5071899;28;20044;-72
2023/12/08 02:55:28;;;;;;;14.15;8.75;;;22.40;45.20;;;;;;5074017;28;20028;-71
2023/12/08 02:57:54;;;;;;;15.77;9.52;;;22.30;45.20;;;;;;5071921;28;20397;-71
2023/12/08 03:00:20;;;;;;;15.18;8.80;;;22.20;45.00;;;;;;5071596;28;20037;-71
2023/12/08 03:02:46;;;;;;;15.57;8.93;;;22.30;45.20;;;;;;5071884;28;20388;-71
2023/12/08 03:05:12;;;;;;;17.02;9.85;;;22.30;45.20;;;;;;5071650;28;20469;-72
2023/12/08 03:07:38;;;;;;;18.48;9.35;;;22.30;45.20;;;;;;5071777;28;20492;-71
2023/12/08 03:10:05;;;;;;;15.77;9.40;;;22.20;45.00;;;;;;5071213;28;20032;-71
2023/12/08 03:12:31;;;;;;;17.02;9.23;;;22.10;45.00;;;;;;5071706;28;20063;-71
2023/12/08 03:14:57;;;;;;;16.85;9.25;;;22.10;45.00;;;;;;5068007;28;20386;-71
2023/12/08 03:17:23;;;;;;;16.00;9.70;;;22.10;45.10;;;;;;5051649;28;20049;-71
2023/12/08 03:19:49;;;;;;;15.20;9.02;;;22.00;44.90;;;;;;5058453;28;20108;-71
2023/12/08 03:22:15;;;;;;;17.67;10.45;;;22.10;45.00;;;;;;5071352;28;20403;-71
2023/12/08 03:24:41;;;;;;;19.85;9.85;;;22.10;45.00;;;;;;5071419;28;20033;-71
2023/12/08 03:27:07;;;;;;;14.90;9.02;;;22.10;45.00;;;;;;5071245;28;20384;-71
2023/12/08 03:29:33;;;;;;;15.65;9.18;;;22.10;44.90;;;;;;5035493;28;20057;-71
2023/12/08 03:31:59;;;;;;;16.73;9.85;;;22.10;44.90;;;;;;5069389;28;20032;-71
2023/12/08 03:34:25;;;;;;;16.08;9.10;;;22.10;44.90;;;;;;5070158;28;20109;-71
2023/12/08 03:36:51;;;;;;;18.40;9.68;;;22.20;44.80;;;;;;5071276;28;20468;-71
2023/12/08 03:39:17;;;;;;;16.92;10.35;;;22.10;44.70;;;;;;5070931;28;20507;-71
2023/12/08 03:41:43;;;;;;;16.45;9.70;;;22.10;44.70;;;;;;5071268;28;20032;-71
2023/12/08 03:44:09;;;;;;;14.40;8.93;;;22.20;44.70;;;;;;5071363;28;20044;-71
2023/12/08 03:46:35;;;;;;;19.10;10.40;;;22.10;44.60;;;;;;5071238;28;20047;-71
2023/12/08 03:49:01;;;;;;;16.75;9.13;;;22.10;44.60;;;;;;5070653;28;20423;-69
2023/12/08 03:51:27;;;;;;;16.40;9.25;;;22.10;44.50;;;;;;5070888;28;20043;-71
2023/12/08 03:53:53;;;;;;;19.67;10.18;;;22.10;44.50;;;;;;5071162;28;20480;-71
2023/12/08 03:56:19;;;;;;;17.52;9.85;;;22.20;44.40;;;;;;5071250;28;20115;-71
2023/12/08 03:58:45;;;;;;;16.63;10.23;;;22.10;44.40;;;;;;5071147;28;20441;-72
2023/12/08 04:01:17;;;;;;;19.90;10.15;;;22.10;44.40;;;;;;5071039;28;20058;-71
2023/12/08 04:03:43;;;;;;;18.05;10.10;;;22.10;44.40;;;;;;5071093;28;20040;-72
2023/12/08 04:06:09;;;;;;;16.88;9.60;;;22.00;44.30;;;;;;5070698;28;20033;-72
2023/12/08 04:08:35;;;;;;;17.63;10.63;;;22.00;44.30;;;;;;5070968;28;20037;-72
2023/12/08 04:11:01;;;;;;;18.90;9.30;;;22.00;44.30;;;;;;5070886;28;20806;-71
2023/12/08 04:13:27;;;;;;;15.95;9.68;;;21.90;44.20;;;;;;5070915;28;20037;-71
2023/12/08 04:15:53;;;;;;;17.42;9.38;;;22.10;44.30;;;;;;5070690;28;20079;-71
2023/12/08 04:18:20;;;;;;;17.45;9.60;;;22.00;44.30;;;;;;5070780;28;20029;-71
2023/12/08 04:20:46;;;;;;;15.38;8.95;;;22.00;44.20;;;;;;5070547;28;20039;-71
2023/12/08 04:23:12;;;;;;;17.63;9.40;;;22.00;44.20;;;;;;5070677;28;20032;-72
2023/12/08 04:25:38;;;;;;;17.63;10.18;;;22.00;44.20;;;;;;5070808;28;20115;-71
2023/12/08 04:28:04;;;;;;;15.85;9.63;;;22.10;44.20;;;;;;5070880;28;20032;-71
2023/12/08 04:30:31;;;;;;;18.55;10.88;;;22.10;44.20;;;;;;5052661;28;20040;-70
2023/12/08 04:32:57;;;;;;;18.80;9.68;;;22.10;44.20;;;;;;5070662;28;20162;-71
2023/12/08 04:35:24;;;;;;;17.15;9.40;;;22.10;44.10;;;;;;5070726;28;20040;-71
2023/12/08 04:37:50;;;;;;;20.40;10.45;;;22.10;44.10;;;;;;5070629;28;20041;-71
2023/12/08 04:40:17;;;;;;;16.58;9.60;;;22.10;44.10;;;;;;5070599;28;20040;-71
2023/12/08 04:42:44;;;;;;;18.92;10.13;;;22.10;44.00;;;;;;5070427;28;20476;-71
2023/12/08 04:45:13;;;;;;;17.40;9.90;;;22.10;43.90;;;;;;5070555;28;20039;-71
2023/12/08 04:47:40;;;;;;;15.68;8.93;;;22.00;43.90;;;;;;5067091;28;20032;-71
2023/12/08 04:50:07;;;;;;;15.73;9.95;;;22.00;43.90;;;;;;5070251;28;20470;-71
2023/12/08 04:52:33;;;;;;;15.50;9.90;;;22.00;43.90;;;;;;5070416;28;20066;-71
2023/12/08 04:55:00;;;;;;;19.15;10.63;;;21.90;43.80;;;;;;5070589;28;20411;-71
2023/12/08 04:57:27;;;;;;;19.90;10.13;;;21.90;43.90;;;;;;5070612;28;20420;-71
2023/12/08 04:59:52;;;;;;;15.68;9.10;;;21.90;43.90;;;;;;5070247;28;20102;-71
2023/12/08 05:02:18;;;;;;;20.05;10.40;;;21.90;43.80;;;;;;5070999;28;20379;-72
2023/12/08 05:04:44;;;;;;;8.35;5.20;;;21.90;43.80;;;;;;5073979;28;20107;-70
2023/12/08 05:07:10;;;;;;;13.15;7.90;;;21.90;43.70;;;;;;5074171;28;20044;-73
2023/12/08 05:09:36;;;;;;;13.00;7.07;;;21.90;44.00;;;;;;5073568;28;20040;-71
2023/12/08 05:12:03;;;;;;;16.92;9.18;;;22.00;44.00;;;;;;5073878;28;20051;-71
2023/12/08 05:14:29;;;;;;;17.25;8.93;;;22.00;44.10;;;;;;5074187;28;20089;-72
2023/12/08 05:16:55;;;;;;;9.85;5.85;;;22.10;44.20;;;;;;5073747;28;20052;-71
2023/12/08 05:19:21;;;;;;;9.07;5.88;;;22.20;44.40;;;;;;5073970;28;20380;-72
2023/12/08 05:21:48;;;;;;;7.10;5.30;;;22.20;47.20;;;;;;5073547;28;20411;-71
2023/12/08 05:24:14;;;;;;;10.23;6.43;;;22.80;46.70;;;;;;5073805;28;20111;-71
2023/12/08 05:26:40;;;;;;;20.65;10.60;;;23.40;45.80;;;;;;5073922;28;20047;-69
2023/12/08 05:29:06;;;;;;;17.05;9.75;;;24.00;45.60;;;;;;5058973;28;20123;-69
2023/12/08 05:31:32;;;;;;;14.15;9.73;;;24.30;52.60;;;;;;5055969;28;20091;-70
2023/12/08 05:33:58;;;;;;;17.20;10.40;;;24.00;52.20;;;;;;5053553;28;20037;-71
2023/12/08 05:36:24;;;;;;;18.08;9.90;;;24.10;57.40;;;;;;5053446;28;20036;-72
2023/12/08 05:38:50;;;;;;;17.85;10.32;;;24.00;59.90;;;;;;5053522;28;20512;-71
2023/12/08 05:41:17;;;;;;;20.48;10.45;;;24.10;62.80;;;;;;5053480;28;20087;-70
2023/12/08 05:43:43;;;;;;;20.13;10.00;;;24.20;65.30;;;;;;5053512;28;20029;-70
2023/12/08 05:46:09;;;;;;;16.77;9.70;;;24.30;66.00;;;;;;5053493;28;20056;-70
2023/12/08 05:48:35;;;;;;;17.75;10.25;;;24.10;60.80;;;;;;5053084;28;20080;-70
2023/12/08 05:51:01;;;;;;;17.65;10.85;;;24.20;63.90;;;;;;5053209;28;20127;-70
2023/12/08 05:53:27;;;;;;;19.70;10.73;;;24.30;66.60;;;;;;5053284;28;20037;-70
2023/12/08 05:55:53;;;;;;;17.27;10.10;;;24.20;60.80;;;;;;5053268;28;20052;-70
2023/12/08 05:58:19;;;;;;;19.40;11.73;;;24.20;61.20;;;;;;5053248;28;20083;-72
2023/12/08 06:00:45;;;;;;;18.50;10.90;;;23.90;59.00;;;;;;5052920;28;20086;-72
2023/12/08 06:03:11;;;;;;;25.20;11.98;;;23.80;55.40;;;;;;5052945;28;20438;-71
2023/12/08 06:05:37;;;;;;;20.70;12.18;;;23.70;54.00;;;;;;5052838;28;20473;-72
2023/12/08 06:08:03;;;;;;;20.73;11.23;;;23.50;54.30;;;;;;5053198;28;20033;-71
2023/12/08 06:10:29;;;;;;;21.20;12.73;;;23.50;52.80;;;;;;5052575;28;20041;-73
2023/12/08 06:12:55;;;;;;;22.23;12.40;;;23.30;52.30;;;;;;5052975;28;20413;-72
2023/12/08 06:15:22;;;;;;;23.92;11.82;;;23.20;52.30;;;;;;5051488;28;20049;-73
2023/12/08 06:17:48;;;;;;;20.17;11.63;;;23.10;52.50;;;;;;5052778;28;20106;-73
2023/12/08 06:20:14;;;;;;;20.60;10.18;;;23.00;52.50;;;;;;5052690;28;20029;-73
2023/12/08 06:22:41;;;;;;;24.38;11.38;;;23.00;52.80;;;;;;5052778;28;20107;-72
2023/12/08 06:25:08;;;;;;;24.08;10.63;;;23.10;53.00;;;;;;5034764;28;20506;-74
2023/12/08 06:27:35;;;;;;;20.90;11.23;;;23.10;52.80;;;;;;5052389;28;20024;-72
2023/12/08 06:30:01;;;;;;;21.08;11.98;;;23.10;52.60;;;;;;5052184;28;20033;-73
2023/12/08 06:32:28;;;;;;;23.58;11.75;;;22.90;52.40;;;;;;5052242;28;20121;-72
2023/12/08 06:34:55;;;;;;;9.68;6.10;;;23.00;52.50;;;;;;5034765;28;20085;-74
2023/12/08 06:37:21;;;;;;;18.20;10.35;;;22.80;52.40;;;;;;5052547;28;20039;-72
2023/12/08 06:39:47;;;;;;;17.17;10.93;;;22.90;52.20;;;;;;5052143;28;20037;-80
2023/12/08 06:42:13;;;;;;;9.50;6.95;;;23.30;54.70;;;;;;5052158;28;20029;-78
2023/12/08 06:44:39;;;;;;;10.68;7.13;;;23.50;49.10;;;;;;5051945;28;20095;-75
2023/12/08 06:47:05;;;;;;;16.80;10.55;;;23.60;49.20;;;;;;5051779;28;20450;-71
2023/12/08 06:49:31;;;;;;;14.77;9.38;;;23.40;50.60;;;;;;5033876;28;20028;-75
2023/12/08 06:51:57;;;;;;;20.00;10.90;;;23.40;50.70;;;;;;5058739;28;20029;-71
2023/12/08 06:54:23;;;;;;;19.30;10.80;;;23.50;50.40;;;;;;5056434;28;20032;-72
2023/12/08 06:56:49;;;;;;;15.75;10.00;;;23.20;50.20;;;;;;5054047;28;20112;-72
2023/12/08 06:59:15;;;;;;;19.02;10.55;;;23.20;50.20;;;;;;5054827;28;20115;-71
2023/12/08 07:01:41;;;;;;;18.75;10.85;;;23.20;50.50;;;;;;5055907;28;20071;-71
2023/12/08 07:04:08;;;;;;;17.02;10.50;;;23.10;50.80;;;;;;5059705;28;20032;-70
2023/12/08 07:06:34;;;;;;;19.73;11.02;;;23.10;50.90;;;;;;5060545;28;20031;-71
2023/12/08 07:09:00;;;;;;;19.45;10.85;;;23.20;50.90;;;;;;5051720;28;20037;-70
2023/12/08 07:11:26;;;;;;;15.50;8.65;;;23.10;50.70;;;;;;5059906;28;20512;-72
2023/12/08 07:13:53;;;;;;;17.15;9.88;;;23.10;50.50;;;;;;5071474;28;20063;-71
2023/12/08 07:16:19;;;;;;;12.18;7.72;;;23.20;50.40;;;;;;5054912;28;20091;-70
2023/12/08 07:18:45;;;;;;;15.77;9.02;;;23.30;50.60;;;;;;5051418;28;20072;-71
2023/12/08 07:21:12;;;;;;;6.88;4.97;;;23.20;50.50;;;;;;5051303;28;20052;-70
2023/12/08 07:23:38;;;;;;;18.38;9.85;;;23.20;51.50;;;;;;5051534;28;20060;-72
2023/12/08 07:26:04;;;;;;;19.40;10.13;;;23.20;51.90;;;;;;5015581;28;20085;-72
2023/12/08 07:28:30;;;;;;;18.00;10.88;;;23.30;51.60;;;;;;5053889;28;20037;-73
2023/12/08 07:30:57;;;;;;;15.77;10.32;;;23.10;50.90;;;;;;5051457;28;20068;-73
2023/12/08 07:33:24;;;;;;;21.45;10.55;;;23.10;50.60;;;;;;5051363;28;20047;-73
2023/12/08 07:35:50;;;;;;;15.85;9.40;;;23.10;50.50;;;;;;5051657;28;20029;-74
2023/12/08 07:38:16;;;;;;;20.20;10.27;;;23.00;50.50;;;;;;5069443;28;20111;-73
2023/12/08 07:40:42;;;;;;;17.25;10.57;;;23.00;50.50;;;;;;5070947;28;20024;-73
2023/12/08 07:43:08;;;;;;;20.30;10.68;;;22.90;50.40;;;;;;5070763;28;20063;-72
2023/12/08 07:45:34;;;;;;;17.88;10.55;;;23.00;50.40;;;;;;5071147;28;20445;-72
2023/12/08 07:48:00;;;;;;;20.70;10.00;;;22.90;50.60;;;;;;5071115;28;20044;-73
2023/12/08 07:50:26;;;;;;;15.95;9.05;;;22.80;50.70;;;;;;5070735;28;20028;-73
2023/12/08 07:52:53;;;;;;;18.35;9.65;;;22.80;50.90;;;;;;5058596;28;20053;-71
2023/12/08 07:55:19;;;;;;;19.58;9.82;;;22.70;51.10;;;;;;5050719;28;20037;-70
2023/12/08 07:57:46;;;;;;;17.08;9.88;;;22.80;51.30;;;;;;5050943;28;20040;-71
2023/12/08 08:00:13;;;;;;;17.80;9.90;;;22.70;51.60;;;;;;5050858;28;20354;-71
2023/12/08 08:02:39;;;;;;;18.67;9.23;;;22.70;51.90;;;;;;5051019;28;20037;-71
2023/12/08 08:05:05;;;;;;;17.23;9.18;;;22.80;52.00;;;;;;5051032;28;20037;-71
2023/12/08 08:07:32;;;;;;;19.55;9.95;;;22.60;52.20;;;;;;5050711;28;20501;-71
2023/12/08 08:09:58;;;;;;;15.43;9.65;;;22.60;52.60;;;;;;5050637;28;20075;-72
2023/12/08 08:12:24;;;;;;;19.48;9.93;;;22.60;53.00;;;;;;5050517;28;20117;-72
2023/12/08 08:14:50;;;;;;;16.73;9.65;;;22.60;53.20;;;;;;5032781;28;20051;-71
2023/12/08 08:17:16;;;;;;;16.58;9.95;;;22.60;53.50;;;;;;5050822;28;20119;-71
2023/12/08 08:19:42;;;;;;;14.82;9.68;;;22.60;53.80;;;;;;5050799;28;20033;-72
2023/12/08 08:22:08;;;;;;;16.75;9.38;;;22.60;53.90;;;;;;5050498;28;20037;-71
2023/12/08 08:24:34;;;;;;;7.38;5.53;;;22.60;54.20;;;;;;5050495;28;20028;-71
2023/12/08 08:27:01;;;;;;;9.63;4.85;;;22.70;54.20;;;;;;5050964;28;20058;-73
2023/12/08 08:29:27;;;;;;;11.40;7.13;;;22.70;52.50;;;;;;5050789;28;20037;-72
2023/12/08 08:31:53;;;;;;;13.27;5.93;;;22.70;48.60;;;;;;5054392;28;20021;-71
2023/12/08 08:34:19;;;;;;;11.65;6.15;;;22.70;46.30;;;;;;5067802;28;20040;-71
2023/12/08 08:36:45;;;;;;;10.25;5.80;;;22.80;45.00;;;;;;5070642;28;20075;-74
2023/12/08 08:39:11;;;;;;;17.23;7.35;;;22.60;43.70;;;;;;5074302;28;20039;-75
2023/12/08 08:41:37;;;;;;;9.02;6.00;;;22.70;43.30;;;;;;5074386;28;20040;-74
2023/12/08 08:44:03;;;;;;;13.82;6.57;;;22.70;42.50;;;;;;5031952;28;20042;-73
2023/12/08 08:46:30;;;;;;;10.40;6.72;;;22.70;41.60;;;;;;5032076;28;20041;-76
2023/12/08 08:48:56;;;;;;;10.38;6.70;;;22.60;41.00;;;;;;5031862;28;20052;-70
2023/12/08 08:51:23;;;;;;;13.82;9.52;;;22.70;41.20;;;;;;5031873;28;20056;-72
2023/12/08 08:53:49;;;;;;;13.93;9.20;;;22.60;41.10;;;;;;5011887;28;20457;-69
2023/12/08 08:56:16;;;;;;;12.80;8.73;;;22.60;41.00;;;;;;5012174;28;20066;-70
2023/12/08 08:58:42;;;;;;;15.93;9.82;;;22.50;41.70;;;;;;4995659;28;20446;-69
2023/12/08 09:01:08;;;;;;;16.15;9.82;;;22.50;42.20;;;;;;4995385;28;20069;-71
2023/12/08 09:03:34;;;;;;;17.65;10.77;;;22.40;42.10;;;;;;5014125;28;20057;-71
2023/12/08 09:06:00;;;;;;;17.65;10.02;;;22.40;43.20;;;;;;5015644;28;20033;-70
2023/12/08 09:08:26;;;;;;;15.75;9.05;;;22.50;45.50;;;;;;5031285;28;20037;-70
2023/12/08 09:10:52;;;;;;;14.13;9.40;;;22.50;46.90;;;;;;5031665;28;20045;-70
2023/12/08 09:13:20;;;;;;;18.67;9.80;;;22.40;47.40;;;;;;5031604;28;20041;-71
2023/12/08 09:15:46;;;;;;;12.45;7.53;;;22.30;48.10;;;;;;5065074;28;20059;-70
2023/12/08 09:18:12;;;;;;;13.55;8.13;;;22.40;48.20;;;;;;5073863;28;20036;-71
2023/12/08 09:20:39;;;;;;;10.55;7.07;;;22.60;46.80;;;;;;5070243;28;20652;-71
2023/12/08 09:23:05;;;;;;;36.08;10.15;;;22.70;46.70;;;;;;5073700;28;20029;-71
2023/12/08 09:25:32;;;;;;;13.57;9.13;;;22.90;44.30;;;;;;5073864;28;20396;-71
2023/12/08 09:27:58;;;;;;;12.18;9.50;;;23.10;44.60;;;;;;5073706;28;20060;-70
2023/12/08 09:30:24;;;;;;;11.55;7.78;;;23.10;40.40;;;;;;5055507;28;20029;-71
2023/12/08 09:32:50;;;;;;;14.48;9.60;;;23.00;36.40;;;;;;4999856;28;20076;-71
2023/12/08 09:35:19;;;;;;;13.73;8.80;;;23.00;48.10;;;;;;5053164;28;20040;-69
2023/12/08 09:37:45;;;;;;;13.73;9.02;;;23.00;48.70;;;;;;5053574;28;20043;-71
2023/12/08 09:40:14;;;;;;;13.60;8.60;;;23.10;48.90;;;;;;5053617;28;20033;-70
2023/12/08 09:42:55;;;;;;;13.80;8.43;;;23.00;48.80;;;;;;5053100;28;20552;-71
2023/12/08 09:45:21;;;;;;;14.07;8.38;;;23.00;49.00;;;;;;5053486;28;20059;-72
2023/12/08 09:47:50;;;;;;;13.68;8.27;;;23.00;49.20;;;;;;5053352;28;20493;-72
2023/12/08 09:50:17;;;;;;;16.27;9.00;;;23.10;52.40;;;;;;5053130;28;20067;-69
2023/12/08 09:52:44;;;;;;;14.95;9.57;;;23.40;54.50;;;;;;5063788;28;20485;-69
2023/12/08 09:55:10;;;;;;;12.88;8.32;;;23.70;53.50;;;;;;5073336;28;20094;-68
2023/12/08 09:57:41;;;;;;;15.05;8.57;;;23.70;51.50;;;;;;5073153;28;20078;-69
2023/12/08 10:00:10;;;;;;;10.88;8.07;;;23.80;50.10;;;;;;5055121;28;20036;-71
2023/12/08 10:02:36;;;;;;;10.45;7.78;;;23.80;50.00;;;;;;5072840;28;20029;-71
2023/12/08 10:05:02;;;;;;;13.07;9.05;;;23.50;50.10;;;;;;5073055;28;20107;-70
2023/12/08 10:07:31;;;;;;;15.60;9.57;;;23.60;50.30;;;;;;5055165;28;20044;-70
2023/12/08 10:09:59;;;;;;;11.90;8.63;;;23.40;50.50;;;;;;5054934;28;20085;-72
2023/12/08 10:12:25;;;;;;;10.45;7.30;;;23.40;50.60;;;;;;5072916;28;20068;-71
2023/12/08 10:14:56;;;;;;;13.80;8.88;;;23.40;50.60;;;;;;5072996;28;20067;-69
2023/12/08 10:17:23;;;;;;;12.02;7.63;;;23.40;50.80;;;;;;5072600;28;20037;-69
2023/12/08 10:19:52;;;;;;;13.35;8.20;;;23.40;50.80;;;;;;5072771;28;20085;-70
2023/12/08 10:22:18;;;;;;;15.43;8.32;;;23.40;50.80;;;;;;5072693;28;20044;-70
2023/12/08 10:24:45;;;;;;;13.73;8.38;;;23.30;50.70;;;;;;5072717;28;20116;-71
2023/12/08 10:27:11;;;;;;;13.65;9.10;;;23.30;50.70;;;;;;5072482;28;20369;-70
2023/12/08 10:29:37;;;;;;;14.35;8.65;;;23.40;50.70;;;;;;5072360;28;20377;-71
2023/12/08 10:32:04;;;;;;;13.23;8.18;;;23.20;50.60;;;;;;5072162;28;20445;-71
2023/12/08 10:34:31;;;;;;;9.88;5.97;;;23.20;50.80;;;;;;5072494;28;20028;-68
2023/12/08 10:36:57;;;;;;;14.30;6.63;;;23.30;45.10;;;;;;5063520;28;20489;-69
2023/12/08 10:39:25;;;;;;;14.60;7.15;;;23.20;41.60;;;;;;5071057;28;20065;-70
2023/12/08 10:41:51;;;;;;;16.65;8.93;;;23.20;41.00;;;;;;5052109;28;20385;-69
2023/12/08 10:44:23;;;;;;;14.25;9.27;;;23.30;51.40;;;;;;5058297;28;20032;-71
2023/12/08 10:46:50;;;;;;;14.07;9.57;;;23.40;51.90;;;;;;5072405;28;20034;-71
2023/12/08 10:49:19;;;;;;;13.32;9.85;;;23.40;51.40;;;;;;5059014;28;20120;-70
2023/12/08 10:51:49;;;;;;;15.05;9.70;;;23.30;51.40;;;;;;5051934;28;20108;-71
2023/12/08 10:54:19;;;;;;;8.15;6.00;;;23.70;57.30;;;;;;5051909;28;20029;-74
2023/12/08 10:56:46;;;;;;;12.45;7.43;;;23.90;50.00;;;;;;5051729;28;20039;-74
2023/12/08 10:59:25;;;;;;;17.00;10.35;;;23.80;47.70;;;;;;5051646;28;20036;-72
2023/12/08 11:01:55;;;;;;;16.77;9.35;;;23.80;53.30;;;;;;5053477;28;20068;-72
2023/12/08 11:04:21;;;;;;;16.45;9.68;;;23.70;52.50;;;;;;5051916;28;20497;-72
2023/12/08 11:07:02;;;;;;;15.57;9.07;;;23.50;52.20;;;;;;5050062;28;20036;-70
2023/12/08 11:09:34;;;;;;;17.80;9.90;;;23.70;52.00;;;;;;5051943;28;20024;-72
2023/12/08 11:12:03;;;;;;;13.10;8.85;;;23.50;51.80;;;;;;5068918;28;20036;-73
2023/12/08 11:14:42;;;;;;;21.13;10.30;;;23.40;51.60;;;;;;5068918;28;20047;-72
2023/12/08 11:17:30;;;;;;;16.10;10.13;;;23.50;51.60;;;;;;5067751;28;20045;-73
2023/12/08 11:19:58;;;;;;;13.73;8.05;;;23.60;51.50;;;;;;5068258;28;20372;-71
2023/12/08 11:22:25;;;;;;;14.15;9.23;;;23.40;51.40;;;;;;5070264;28;20035;-72
2023/12/08 11:24:51;;;;;;;14.05;9.20;;;23.40;51.40;;;;;;5066776;28;20745;-70
2023/12/08 11:27:30;;;;;;;18.00;9.90;;;23.40;51.40;;;;;;5068848;28;20170;-72
2023/12/08 11:30:08;;;;;;;15.85;10.00;;;23.30;51.60;;;;;;5068451;28;20533;-72
2023/12/08 11:32:51;;;;;;;16.67;9.63;;;23.20;51.60;;;;;;5008478;28;20537;-75
2023/12/08 11:35:17;;;;;;;14.55;9.23;;;23.30;51.80;;;;;;5008970;28;20151;-70
2023/12/08 11:37:47;;;;;;;13.57;8.18;;;23.30;51.80;;;;;;5009121;28;20510;-71
2023/12/08 11:40:13;;;;;;;13.23;8.73;;;23.20;51.90;;;;;;5007438;28;20096;-70
2023/12/08 11:42:44;;;;;;;15.68;9.35;;;23.10;52.20;;;;;;5008756;28;20128;-71
2023/12/08 11:45:11;;;;;;;13.25;9.40;;;23.10;52.40;;;;;;4993427;28;20034;-71
2023/12/08 11:47:37;;;;;;;13.70;9.00;;;23.00;52.50;;;;;;4989133;28;20054;-70
2023/12/08 11:50:05;;;;;;;13.15;8.45;;;23.00;52.60;;;;;;4989379;28;20053;-70
2023/12/08 11:52:37;;;;;;;14.82;9.63;;;23.00;52.70;;;;;;4989049;28;20050;-70
2023/12/08 11:55:16;;;;;;;14.60;8.52;;;22.90;52.70;;;;;;4989152;28;20038;-70
2023/12/08 11:58:04;;;;;;;14.48;9.25;;;22.90;52.90;;;;;;4956527;28;20050;-70
2023/12/08 12:00:33;;;;;;;13.82;8.52;;;22.80;53.00;;;;;;4989158;28;20042;-70
2023/12/08 12:02:59;;;;;;;14.45;8.25;;;22.70;53.00;;;;;;5005202;28;20052;-70
2023/12/08 12:05:26;;;;;;;15.57;9.38;;;22.80;53.10;;;;;;5048408;28;20052;-70
2023/12/08 12:07:54;;;;;;;15.30;9.57;;;22.80;53.10;;;;;;5049514;28;20033;-70
2023/12/08 12:10:25;;;;;;;15.85;10.10;;;22.70;53.10;;;;;;5050827;28;20111;-70
2023/12/08 12:13:12;;;;;;;14.52;9.90;;;22.80;56.30;;;;;;5052307;28;20059;-73
2023/12/08 12:15:40;;;;;;;16.38;10.10;;;23.10;55.70;;;;;;5054691;28;20069;-73
2023/12/08 12:18:06;;;;;;;14.98;9.65;;;23.10;53.50;;;;;;5035885;28;20086;-72
2023/12/08 12:20:38;;;;;;;13.75;9.57;;;22.90;52.90;;;;;;5054578;28;20059;-71
2023/12/08 12:23:04;;;;;;;18.52;10.13;;;22.90;53.10;;;;;;5054330;28;20094;-71
2023/12/08 12:25:31;;;;;;;14.40;9.55;;;22.80;53.00;;;;;;5054685;28;20043;-72
2023/12/08 12:28:00;;;;;;;13.68;8.50;;;22.80;53.10;;;;;;5054530;28;20073;-71
2023/12/08 12:30:26;;;;;;;15.93;10.20;;;22.70;52.90;;;;;;5054346;28;20480;-73
2023/12/08 12:32:52;;;;;;;13.93;9.35;;;22.80;52.50;;;;;;5054186;28;20056;-71
2023/12/08 12:35:18;;;;;;;15.80;9.45;;;22.80;52.50;;;;;;5054438;28;20594;-71